Atlanta (ATL/KATL)

Information

Location
Atlanta, GA
Local Time
15:45 / 3:45 pm
GMT Time
19:45 / 7:45 pm
Gates
No FAA reported delays
METAR KATL 281852Z 19009G17KT 10SM SCT042 BKN250 28/18 A3004 RMK AO2 SLP163 T02830183
TAF KATL 281724Z 2818/2924 19010KT P6SM SCT030 FM290100 17007KT P6SM FEW250 FM291100 15004KT P6SM FEW008 SCT020 FM291600 17010KT P6SM SCT040